Terminal Aerodrome Forecast
Issued by NWS

Home | Current Version | Previous Version | Text Only | Print | Product List | Glossary On
Versions: 1 2 3 4 5 6 7 8 9 10 11 12 13 14 15 16 17 18 19 20 21 22 23 24 25 26 27 28 29 30 31 32 33 34 35 36
000
FTUS41 KRNK 011146
TAFLWB
TAF
KLWB 011146Z 0112/0212 00000KT P6SM SCT023 SCT250
      TEMPO 0112/0113 4SM BR BKN023
     FM011400 27008G15KT P6SM SCT035 SCT250
     FM011900 28008G16KT P6SM BKN050 BKN100
     FM020100 00000KT P6SM BKN050 OVC090
      TEMPO 0204/0206 4SM BR
     FM020600 00000KT 1/2SM FG VV001=

USA.gov is the U.S. government's official web portal to all federal, state and local government web resources and services.